MT WASHINGTON (MTW)

Elevation: 920' · LOS ANGELES R basin · Operator: Los Angeles County Fire Dept

Query executed Thursday at 16:36:52   clock

Provisional data, subject to change.
Select a sensor type for a plot of data.

Earlier

Date   /   Time   RAIN     TEMP     REL HUM     BAR PRE     FUEL MS     FUEL TP     WIND SP     WIND DR     PEAK WS     PEAK WD     SOLAR R     BAT VOL    
(PDT)INCHES   DEG F   %   INCHES   %   DEG F   MPH   DEG   MPH   DEG   W/M^2   VOLTS  
10/29/2014 17:00 0.00 73 34 -- 6 72 -- -- -- -- 43.00 12.6
10/29/2014 18:00 0.00 69 47 -- 7 69 -- -- -- -- 1.00 12.5
10/29/2014 19:00 0.00 67 54 -- 8 66 -- -- -- -- 0.00 12.5
10/29/2014 20:00 0.00 68 49 -- 8 66 -- -- -- -- 0.00 12.5
10/29/2014 21:00 0.00 66 64 -- 8 65 -- -- -- -- 0.00 12.5
10/29/2014 22:00 0.00 63 76 -- 10 63 -- -- -- -- 0.00 12.4
10/29/2014 23:00 0.00 64 73 -- 11 63 -- -- -- -- 0.00 12.4
10/30/2014 00:00 0.00 62 79 -- 11 61 -- -- -- -- 0.00 12.4
10/30/2014 01:00 0.00 63 81 -- 13 61 -- -- -- -- 0.00 12.4
10/30/2014 02:00 0.00 64 74 -- 13 62 -- -- -- -- 0.00 12.3
10/30/2014 03:00 0.00 61 84 -- 13 60 -- -- -- -- 0.00 12.3
10/30/2014 04:00 0.00 60 74 -- 14 59 -- -- -- -- 0.00 12.3
10/30/2014 05:00 0.00 62 76 -- 14 60 -- -- -- -- 0.00 12.3
10/30/2014 06:00 0.00 60 70 -- 13 59 -- -- -- -- 0.00 12.2
10/30/2014 07:00 0.00 61 64 -- 13 59 -- -- -- -- 9.00 12.4
10/30/2014 08:00 0.00 66 49 -- 12 65 -- -- -- -- 69.00 13.0
10/30/2014 09:00 0.00 76 31 -- 11 75 -- -- -- -- 286.00 13.5
10/30/2014 10:00 0.00 79 27 -- 10 83 -- -- -- -- 520.00 13.4
10/30/2014 11:00 0.00 83 24 -- 9 87 -- -- -- -- 619.00 13.4
10/30/2014 12:00 0.00 86 22 -- 8 96 -- -- -- -- 640.00 13.4
10/30/2014 13:00 0.00 81 42 -- 8 91 -- -- -- -- 608.00 13.4
10/30/2014 14:00 0.00 78 44 -- 8 85 -- -- -- -- 443.00 13.4
10/30/2014 15:00 0.00 72 60 -- 8 77 -- -- -- -- 275.00 13.5
10/30/2014 16:00 -- -- -- -- -- -- -- -- -- -- -- --

Later | Latest

Warning! This data is preliminary and subject to revision.

Show MTW Map | 24 Hours MTW Data | Plot all MTW Sensors | Daily MTW Data | MTW Info